Spurlockville, WV (25565)

5:47 AM EST on December 28, 2014 (GMT -0500)
Trace Creek | Change Station
CLOSE
Current Station
Personal Weather Station
Location: Hamlin, WV
Elevation: 713 ft
Nearby Weather Stations

Elev 713 ft 38.26 °N, 82.08 °W | Updated 5 seconds ago

Overcast
Overcast
47.0 °F
Feels Like 47 °F
N
0.0
Wind Variable Wind from SSW
Gusts 0.0 mph

Today
High -- | Low -- °F
--% Chance of Precip.
Yesterday
High -- | Low -- °F
Precip. -- in
7:43 AM 5:15 PM
Waxing Crescent, 46% visible
Pressure 30.01 in
Visibility 10.0 miles
Clouds Mostly Cloudy 2200 ft
Overcast 4000 ft
Windchill 47 °F
Dew Point 46 °F
Humidity 96%
Rainfall 0.02 in
Snow Depth Not available.
UV 0 out of 12
Pollen .10 out of 12
Air Quality Not available.
Flu Activity Not available.
SPECI KCRW 281037Z 22003KT 10SM BKN022 OVC040 10/07 A3001 RMK AO2 T01000067 $

More Conditions Fewer Conditions

Pressure 30.01 in
Visibility 10.0 miles
Clouds Mostly Cloudy 2200 ft
Overcast 4000 ft
Windchill 47 °F
Dew Point 46 °F
Humidity 96%
Rainfall 0.02 in
Snow Depth Not available.
UV 0 out of 12
Pollen .10 out of 12
Air Quality Not available.
Flu Activity Not available.
SPECI KCRW 281037Z 22003KT 10SM BKN022 OVC040 10/07 A3001 RMK AO2 T01000067 $

More Conditions Fewer Conditions

10-Day Weather Forecast

Almanac

Astronomy

Dec. 28, 2014 Rise Set
Actual Time
Civil Twilight
Nautical Twilight
Astronomical Twilight
Moon
Length of Visible Light
Length of Day
Tomorrow will be .
, % of the Moon is Illuminated

Today's Extremes

State Highs State Lows

Community

WunderPhotos

Upload Photos

1,781,232 photos uploaded!

WunderBlogs® & News

Nearby

Air Quality

  Air Quality AQ Index Pollutant
Not available.

Snow Depth

Station Depth Elevation

Earthquake Activity

City Distance Mag. Time & Date
Minimum magnitude displayed is 2.5.

Coastal Water Temperatures

Place Temperature

Nearby Weather Stations